createdAt,value
2022-08-29T00:00:17.648Z,100.00
2022-08-29T00:02:49.881Z,100.00
2022-08-29T00:05:24.875Z,100.00
2022-08-29T00:07:53.789Z,100.00
2022-08-29T00:10:23.375Z,100.00
2022-08-29T00:12:51.975Z,100.00
2022-08-29T00:15:21.499Z,100.00
2022-08-29T00:17:50.578Z,100.00
2022-08-29T00:20:30.438Z,100.00
2022-08-29T00:23:03.265Z,100.00
2022-08-29T00:25:32.330Z,100.00
2022-08-29T00:28:01.236Z,100.00
2022-08-29T00:30:29.991Z,100.00
2022-08-29T00:32:58.539Z,100.00
2022-08-29T00:35:31.243Z,100.00
2022-08-29T00:38:00.526Z,100.00
2022-08-29T00:40:33.575Z,100.00
2022-08-29T00:43:03.094Z,100.00
2022-08-29T00:45:32.531Z,100.00
2022-08-29T00:48:06.513Z,100.00
2022-08-29T00:50:42.000Z,100.00
2022-08-29T00:53:17.113Z,100.00
2022-08-29T00:55:50.319Z,100.00
2022-08-29T00:58:26.681Z,100.00
2022-08-29T01:00:55.994Z,100.00
2022-08-29T01:03:24.542Z,100.00
2022-08-29T01:05:54.687Z,100.00
2022-08-29T01:08:23.363Z,100.00
2022-08-29T01:11:10.091Z,100.00
2022-08-29T01:13:42.988Z,100.00
2022-08-29T01:16:13.526Z,100.00
2022-08-29T01:18:45.445Z,100.00
2022-08-29T01:21:21.778Z,100.00
2022-08-29T01:24:00.003Z,100.00
2022-08-29T01:26:31.391Z,100.00
2022-08-29T01:28:59.916Z,100.00
2022-08-29T01:31:37.582Z,100.00
2022-08-29T01:34:21.295Z,100.00
2022-08-29T01:36:54.365Z,100.00
2022-08-29T01:39:26.645Z,100.00
2022-08-29T01:41:59.995Z,100.00
2022-08-29T01:44:28.565Z,100.00
2022-08-29T01:47:03.047Z,100.00
2022-08-29T01:49:34.680Z,100.00
2022-08-29T01:52:07.773Z,100.00
2022-08-29T01:54:36.584Z,100.00
2022-08-29T01:57:12.212Z,100.00
2022-08-29T01:59:42.046Z,100.00
2022-08-29T02:02:16.201Z,100.00
2022-08-29T02:04:45.526Z,100.00
2022-08-29T02:07:14.415Z,100.00
2022-08-29T02:09:45.910Z,100.00
2022-08-29T02:12:16.704Z,100.00
2022-08-29T02:14:46.332Z,100.00
2022-08-29T02:17:15.119Z,100.00
2022-08-29T02:19:44.257Z,100.00
2022-08-29T02:22:13.179Z,100.00
2022-08-29T02:24:41.748Z,100.00
2022-08-29T02:27:12.737Z,100.00
2022-08-29T02:29:42.633Z,100.00
2022-08-29T02:32:13.842Z,100.00
2022-08-29T02:34:44.714Z,100.00
2022-08-29T02:37:17.784Z,100.00
2022-08-29T02:39:46.305Z,100.00
2022-08-29T02:42:14.790Z,100.00
2022-08-29T02:44:44.674Z,100.00
2022-08-29T02:47:14.510Z,100.00
2022-08-29T02:49:43.714Z,100.00
2022-08-29T02:52:13.017Z,100.00
2022-08-29T02:54:41.686Z,100.00
2022-08-29T02:57:10.465Z,100.00
2022-08-29T02:59:38.979Z,100.00
2022-08-29T03:02:08.855Z,100.00
2022-08-29T03:04:37.385Z,100.00
2022-08-29T03:07:06.540Z,100.00
2022-08-29T03:09:35.107Z,100.00
2022-08-29T03:12:03.788Z,100.00
2022-08-29T03:14:32.277Z,100.00
2022-08-29T03:17:00.732Z,100.00
2022-08-29T03:19:30.713Z,100.00
2022-08-29T03:22:05.811Z,100.00
2022-08-29T03:24:36.126Z,100.00
2022-08-29T03:27:04.773Z,100.00
2022-08-29T03:29:33.286Z,100.00
2022-08-29T03:32:01.815Z,100.00
2022-08-29T03:34:33.146Z,100.00
2022-08-29T03:37:02.065Z,100.00
2022-08-29T03:39:30.726Z,100.00
2022-08-29T03:41:59.289Z,100.00
2022-08-29T03:44:27.740Z,100.00
2022-08-29T03:46:57.143Z,100.00
2022-08-29T03:49:25.727Z,100.00
2022-08-29T03:51:56.329Z,100.00
2022-08-29T03:54:25.203Z,100.00
2022-08-29T03:56:54.104Z,100.00
2022-08-29T03:59:23.009Z,100.00
2022-08-29T04:05:08.026Z,100.00
2022-08-29T04:07:45.099Z,100.00
2022-08-29T04:10:17.593Z,100.00
2022-08-29T04:12:46.135Z,100.00
2022-08-29T04:15:15.476Z,100.00
2022-08-29T04:17:52.827Z,100.00
2022-08-29T04:20:25.353Z,100.00
2022-08-29T04:22:57.581Z,100.00
2022-08-29T04:25:28.485Z,100.00
2022-08-29T04:27:57.407Z,100.00
2022-08-29T04:30:28.243Z,100.00
2022-08-29T04:32:56.918Z,100.00
2022-08-29T04:35:26.007Z,100.00
2022-08-29T04:37:56.002Z,100.00
2022-08-29T04:40:24.917Z,100.00
2022-08-29T04:42:53.477Z,100.00
2022-08-29T04:45:23.901Z,100.00
2022-08-29T04:47:52.755Z,100.00
2022-08-29T04:50:24.177Z,100.00
2022-08-29T04:52:58.137Z,100.00
2022-08-29T04:55:26.761Z,100.00
2022-08-29T04:57:57.614Z,100.00
2022-08-29T05:00:30.314Z,100.00
2022-08-29T05:03:00.358Z,100.00
2022-08-29T05:05:29.148Z,100.00
2022-08-29T05:07:58.974Z,100.00
2022-08-29T05:10:27.509Z,100.00
2022-08-29T05:12:55.973Z,100.00
2022-08-29T05:15:24.544Z,100.00
2022-08-29T05:17:53.439Z,100.00
2022-08-29T05:20:22.127Z,100.00
2022-08-29T05:22:50.583Z,100.00
2022-08-29T05:25:20.589Z,100.00
2022-08-29T05:27:49.062Z,100.00
2022-08-29T05:30:34.237Z,100.00
2022-08-29T05:33:04.782Z,100.00
2022-08-29T05:35:33.384Z,100.00
2022-08-29T05:38:08.612Z,100.00
2022-08-29T05:40:39.768Z,100.00
2022-08-29T05:43:11.905Z,100.00
2022-08-29T05:45:41.989Z,100.00
2022-08-29T05:48:11.040Z,100.00
2022-08-29T05:50:42.035Z,100.00
2022-08-29T05:53:10.635Z,100.00
2022-08-29T05:55:43.115Z,100.00
2022-08-29T05:58:12.252Z,100.00
2022-08-29T06:00:42.934Z,100.00
2022-08-29T06:03:13.065Z,100.00
2022-08-29T06:05:42.892Z,100.00
2022-08-29T06:08:11.429Z,100.00
2022-08-29T06:10:45.464Z,100.00
2022-08-29T06:13:14.228Z,100.00
2022-08-29T06:15:44.747Z,100.00
2022-08-29T06:18:14.084Z,100.00
2022-08-29T06:20:42.953Z,100.00
2022-08-29T06:23:11.421Z,100.00
2022-08-29T06:25:40.419Z,100.00
2022-08-29T06:28:10.438Z,100.00
2022-08-29T06:30:39.041Z,100.00
2022-08-29T06:33:07.657Z,100.00
2022-08-29T06:35:37.725Z,100.00
2022-08-29T06:38:09.734Z,100.00
2022-08-29T06:40:42.028Z,100.00
2022-08-29T06:43:11.910Z,100.00
2022-08-29T06:45:42.706Z,100.00
2022-08-29T06:48:13.934Z,100.00
2022-08-29T06:50:45.659Z,100.00
2022-08-29T06:53:27.355Z,100.00
2022-08-29T06:55:57.229Z,100.00
2022-08-29T06:58:27.085Z,100.00
2022-08-29T07:00:55.905Z,100.00
2022-08-29T07:03:24.551Z,100.00
2022-08-29T07:05:54.193Z,100.00
2022-08-29T07:08:23.853Z,100.00
2022-08-29T07:10:52.451Z,100.00
2022-08-29T07:13:21.191Z,100.00
2022-08-29T07:15:51.231Z,100.00
2022-08-29T07:18:20.332Z,100.00
2022-08-29T07:20:49.333Z,100.00
2022-08-29T07:23:17.982Z,100.00
2022-08-29T07:25:46.551Z,100.00
2022-08-29T07:28:15.398Z,100.00
2022-08-29T07:30:44.028Z,100.00
2022-08-29T07:33:14.141Z,100.00
2022-08-29T07:35:42.866Z,100.00
2022-08-29T07:38:11.734Z,100.00
2022-08-29T07:40:40.575Z,100.00
2022-08-29T07:43:09.076Z,100.00
2022-08-29T07:45:40.375Z,100.00
2022-08-29T07:48:10.292Z,100.00
2022-08-29T07:50:43.205Z,100.00
2022-08-29T07:53:11.761Z,100.00
2022-08-29T07:55:40.258Z,100.00
2022-08-29T07:58:08.834Z,100.00
2022-08-29T08:00:37.482Z,100.00
2022-08-29T08:03:06.954Z,100.00
2022-08-29T08:05:35.825Z,100.00
2022-08-29T08:08:14.961Z,100.00
2022-08-29T08:10:43.954Z,100.00
2022-08-29T08:13:12.415Z,100.00
2022-08-29T08:15:41.711Z,100.00
2022-08-29T08:18:10.631Z,100.00
2022-08-29T08:20:39.287Z,100.00
2022-08-29T08:23:09.209Z,100.00
2022-08-29T08:25:37.720Z,100.00
2022-08-29T08:28:06.155Z,100.00
2022-08-29T08:30:35.934Z,100.00
2022-08-29T08:33:05.089Z,100.00
2022-08-29T08:35:36.421Z,89.84
2022-08-29T08:38:10.433Z,80.84
2022-08-29T08:40:45.111Z,69.09
2022-08-29T08:43:20.711Z,60.09
2022-08-29T08:45:57.811Z,67.88
2022-08-29T08:48:30.614Z,61.89
2022-08-29T08:51:05.075Z,65.76
2022-08-29T08:53:39.819Z,67.88
2022-08-29T08:56:17.581Z,59.18
2022-08-29T08:58:53.456Z,52.80
2022-08-29T09:01:26.876Z,48.52
2022-08-29T09:04:16.380Z,48.26
2022-08-29T09:06:56.785Z,46.01
2022-08-29T09:09:38.701Z,46.37
2022-08-29T09:12:32.611Z,48.89
2022-08-29T09:15:13.366Z,52.79
2022-08-29T09:17:47.959Z,54.48
2022-08-29T09:20:24.484Z,56.25
2022-08-29T09:23:00.989Z,59.02
2022-08-29T09:25:32.007Z,60.70
2022-08-29T09:28:01.928Z,59.46
2022-08-29T09:30:33.649Z,56.32
2022-08-29T09:33:05.270Z,55.22
2022-08-29T09:35:39.915Z,55.89
2022-08-29T09:38:10.990Z,57.40
2022-08-29T09:40:49.330Z,59.33
2022-08-29T09:43:22.024Z,61.02
2022-08-29T09:46:16.964Z,61.79
2022-08-29T09:48:47.469Z,63.99
2022-08-29T09:51:24.653Z,59.84
2022-08-29T09:53:54.059Z,59.25
2022-08-29T09:56:26.569Z,58.83
2022-08-29T09:59:02.123Z,53.62
2022-08-29T10:01:32.554Z,48.07
2022-08-29T10:04:09.706Z,44.25
2022-08-29T10:06:45.275Z,40.48
2022-08-29T10:09:27.649Z,37.94
2022-08-29T10:12:01.707Z,38.00
2022-08-29T10:14:35.570Z,42.58
2022-08-29T10:17:22.103Z,40.79
2022-08-29T10:19:51.938Z,38.93
2022-08-29T10:22:31.085Z,36.27
2022-08-29T10:25:05.157Z,34.50
2022-08-29T10:27:44.943Z,35.54
2022-08-29T10:30:17.537Z,34.49
2022-08-29T10:33:04.752Z,34.20
2022-08-29T10:35:38.813Z,33.69
2022-08-29T10:38:17.317Z,33.79
2022-08-29T10:40:50.295Z,32.31
2022-08-29T10:43:38.558Z,34.00
2022-08-29T10:46:37.253Z,33.47
2022-08-29T10:49:13.601Z,33.07
2022-08-29T10:51:50.987Z,34.69
2022-08-29T10:54:28.439Z,32.90
2022-08-29T10:56:57.280Z,38.74
2022-08-29T10:59:32.833Z,42.34
2022-08-29T11:02:08.707Z,39.74
2022-08-29T11:04:41.827Z,36.57
2022-08-29T11:07:16.344Z,35.58
2022-08-29T11:09:49.444Z,34.63
2022-08-29T11:12:22.791Z,37.86
2022-08-29T11:14:57.981Z,42.14
2022-08-29T11:17:31.165Z,39.04
2022-08-29T11:20:05.843Z,42.20
2022-08-29T11:22:41.630Z,44.76
2022-08-29T11:25:13.751Z,40.79
2022-08-29T11:27:53.659Z,39.03
2022-08-29T11:30:30.463Z,37.03
2022-08-29T11:33:08.078Z,36.07
2022-08-29T11:35:46.714Z,37.05
2022-08-29T11:38:37.454Z,36.09
2022-08-29T11:41:27.538Z,35.08
2022-08-29T11:44:05.894Z,34.81
2022-08-29T11:46:40.639Z,35.54
2022-08-29T11:49:38.757Z,34.14
2022-08-29T11:52:26.355Z,35.19
2022-08-29T11:55:16.375Z,41.58
2022-08-29T11:58:05.676Z,39.61
2022-08-29T12:00:42.953Z,38.18
2022-08-29T12:03:51.015Z,39.50
2022-08-29T12:06:25.846Z,39.01
2022-08-29T12:09:04.907Z,45.73
2022-08-29T12:12:17.082Z,52.75
2022-08-29T12:14:47.210Z,58.87
2022-08-29T12:18:03.291Z,63.73
2022-08-29T12:20:42.272Z,65.99
2022-08-29T12:23:27.774Z,70.23
2022-08-29T12:26:21.090Z,68.15
2022-08-29T12:28:58.490Z,67.46
2022-08-29T12:32:08.532Z,69.17
2022-08-29T12:34:49.800Z,71.49
2022-08-29T12:37:30.933Z,71.92
2022-08-29T12:40:44.333Z,72.53
2022-08-29T12:43:26.552Z,77.37
2022-08-29T12:45:56.609Z,77.05
2022-08-29T12:48:28.280Z,75.64
2022-08-29T12:50:57.304Z,76.83
2022-08-29T12:53:27.987Z,77.48
2022-08-29T12:55:58.687Z,79.44
2022-08-29T12:58:42.989Z,79.89
2022-08-29T13:01:27.066Z,80.69
2022-08-29T13:04:02.036Z,80.53
2022-08-29T13:06:31.600Z,80.12
2022-08-29T13:09:00.349Z,81.07
2022-08-29T13:11:30.612Z,82.21
2022-08-29T13:14:09.631Z,81.51
2022-08-29T13:16:40.347Z,83.81
2022-08-29T13:19:20.653Z,84.74
2022-08-29T13:21:49.234Z,86.08
2022-08-29T13:24:20.601Z,86.66
2022-08-29T13:27:04.606Z,87.29
2022-08-29T13:29:39.324Z,89.91
2022-08-29T13:32:20.453Z,90.77
2022-08-29T13:35:06.567Z,88.94
2022-08-29T13:37:37.549Z,90.00
2022-08-29T13:40:31.329Z,89.13
2022-08-29T13:43:02.254Z,89.27
2022-08-29T13:45:32.408Z,91.57
2022-08-29T13:48:12.721Z,93.32
2022-08-29T13:50:41.795Z,93.92
2022-08-29T13:53:10.500Z,94.10
2022-08-29T13:55:41.737Z,94.61
2022-08-29T13:58:15.106Z,94.95
2022-08-29T14:00:45.547Z,93.97
2022-08-29T14:03:17.105Z,93.89
2022-08-29T14:05:46.173Z,90.77
2022-08-29T14:08:15.377Z,90.06
2022-08-29T14:10:43.950Z,88.59
2022-08-29T14:13:12.881Z,90.96
2022-08-29T14:15:41.639Z,91.22
2022-08-29T14:18:11.595Z,91.68
2022-08-29T14:20:40.403Z,89.83
2022-08-29T14:23:08.915Z,91.26
2022-08-29T14:25:37.659Z,90.54
2022-08-29T14:28:06.358Z,88.66
2022-08-29T14:30:35.098Z,89.09
2022-08-29T14:33:03.587Z,87.88
2022-08-29T14:35:34.835Z,88.08
2022-08-29T14:38:04.265Z,88.93
2022-08-29T14:40:37.817Z,88.55
2022-08-29T14:43:08.947Z,88.45
2022-08-29T14:45:37.768Z,89.20
2022-08-29T14:48:07.006Z,86.10
2022-08-29T14:50:36.904Z,88.58
2022-08-29T14:53:05.723Z,88.25
2022-08-29T14:55:34.486Z,88.57
2022-08-29T14:58:03.008Z,87.94
2022-08-29T15:00:34.171Z,86.55
2022-08-29T15:03:02.766Z,86.47
2022-08-29T15:05:31.858Z,89.13
2022-08-29T15:08:06.007Z,89.75
2022-08-29T15:10:35.566Z,90.55
2022-08-29T15:13:05.363Z,90.45
2022-08-29T15:15:33.973Z,90.23
2022-08-29T15:18:04.281Z,89.95
2022-08-29T15:20:36.614Z,88.37
2022-08-29T15:23:07.949Z,89.82
2022-08-29T15:25:36.809Z,90.56
2022-08-29T15:28:06.976Z,92.60
2022-08-29T15:30:36.607Z,90.48
2022-08-29T15:33:05.194Z,90.99
2022-08-29T15:35:33.837Z,87.82
2022-08-29T15:38:02.357Z,88.55
2022-08-29T15:40:32.516Z,90.98
2022-08-29T15:43:01.154Z,90.47
2022-08-29T15:45:29.947Z,92.64
2022-08-29T15:48:00.866Z,92.50
2022-08-29T15:50:30.388Z,97.56
2022-08-29T15:52:59.218Z,95.26
2022-08-29T15:55:28.034Z,96.04
2022-08-29T15:57:57.988Z,95.39
2022-08-29T16:00:30.550Z,92.93
2022-08-29T16:03:04.412Z,92.45
2022-08-29T16:05:33.877Z,92.38
2022-08-29T16:08:02.767Z,91.14
2022-08-29T16:10:31.938Z,89.71
2022-08-29T16:13:02.717Z,89.14
2022-08-29T16:15:31.601Z,88.76
2022-08-29T16:18:01.493Z,88.40
2022-08-29T16:20:31.218Z,88.80
2022-08-29T16:23:00.496Z,92.18
2022-08-29T16:25:31.196Z,90.26
2022-08-29T16:28:00.080Z,89.96
2022-08-29T16:30:30.864Z,91.32
2022-08-29T16:32:59.378Z,89.57
2022-08-29T16:35:28.533Z,89.71
2022-08-29T16:38:03.113Z,89.34
2022-08-29T16:40:32.978Z,88.75
2022-08-29T16:43:02.573Z,88.59
2022-08-29T16:45:33.048Z,89.76
2022-08-29T16:48:01.620Z,88.61
2022-08-29T16:50:33.245Z,90.92
2022-08-29T16:53:02.962Z,90.74
2022-08-29T16:55:31.870Z,92.25
2022-08-29T16:58:18.167Z,94.74
2022-08-29T17:00:48.205Z,97.01
2022-08-29T17:03:20.077Z,98.70
2022-08-29T17:05:50.059Z,98.14
2022-08-29T17:08:17.409Z,99.11
2022-08-29T17:10:44.864Z,97.83
2022-08-29T17:13:12.854Z,99.05
2022-08-29T17:15:40.184Z,98.66
2022-08-29T17:18:10.440Z,99.26
2022-08-29T17:20:41.432Z,100.00
2022-08-29T17:23:15.906Z,100.00
2022-08-29T17:25:44.448Z,100.00
2022-08-29T17:28:20.235Z,100.00
2022-08-29T17:30:50.806Z,100.00
2022-08-29T17:33:21.505Z,100.00
2022-08-29T17:47:36.648Z,100.00
2022-08-29T17:50:06.030Z,100.00
2022-08-29T17:52:34.785Z,100.00
2022-08-29T17:55:07.190Z,100.00
2022-08-29T17:57:36.223Z,100.00
2022-08-29T18:00:07.253Z,100.00
2022-08-29T18:02:40.429Z,100.00
2022-08-29T18:05:12.812Z,100.00
2022-08-29T18:07:42.188Z,100.00
2022-08-29T18:10:13.128Z,100.00
2022-08-29T18:12:41.833Z,100.00
2022-08-29T18:15:11.698Z,100.00
2022-08-29T18:17:42.188Z,100.00
2022-08-29T18:20:12.353Z,100.00
2022-08-29T18:22:42.648Z,100.00
2022-08-29T18:25:11.842Z,100.00
2022-08-29T18:27:43.802Z,100.00
2022-08-29T18:30:14.784Z,100.00
2022-08-29T18:32:44.782Z,100.00
2022-08-29T18:35:14.000Z,100.00
2022-08-29T18:37:42.528Z,100.00
2022-08-29T18:40:12.228Z,100.00
2022-08-29T18:42:41.670Z,100.00
2022-08-29T18:45:11.189Z,100.00
2022-08-29T18:47:39.667Z,100.00
2022-08-29T18:50:28.242Z,100.00
2022-08-29T18:52:56.942Z,100.00
2022-08-29T18:55:25.659Z,100.00
2022-08-29T18:57:55.217Z,100.00
2022-08-29T19:00:25.192Z,100.00
2022-08-29T19:02:54.415Z,100.00
2022-08-29T19:05:26.514Z,100.00
2022-08-29T19:07:55.917Z,100.00
2022-08-29T19:10:26.536Z,100.00
2022-08-29T19:12:55.478Z,100.00
2022-08-29T19:15:26.479Z,100.00
2022-08-29T19:17:55.870Z,100.00
2022-08-29T19:20:45.994Z,100.00
2022-08-29T19:23:14.973Z,100.00
2022-08-29T19:25:44.579Z,100.00
2022-08-29T19:28:13.442Z,100.00
2022-08-29T19:30:42.647Z,100.00
2022-08-29T19:33:12.468Z,100.00
2022-08-29T19:35:42.488Z,100.00
2022-08-29T19:38:12.314Z,100.00
2022-08-29T19:40:41.895Z,100.00
2022-08-29T19:43:13.874Z,100.00
2022-08-29T19:45:44.456Z,100.00
2022-08-29T19:48:15.178Z,100.00
2022-08-29T19:50:47.430Z,100.00
2022-08-29T19:53:24.580Z,100.00
2022-08-29T19:55:56.536Z,100.00
2022-08-29T19:58:31.658Z,100.00
2022-08-29T20:01:02.846Z,100.00
2022-08-29T20:03:32.300Z,100.00
2022-08-29T20:06:07.623Z,100.00
2022-08-29T20:08:37.014Z,100.00
2022-08-29T20:11:06.531Z,100.00
2022-08-29T20:13:36.157Z,100.00
2022-08-29T20:16:12.149Z,100.00
2022-08-29T20:18:42.226Z,100.00
2022-08-29T20:21:14.908Z,100.00
2022-08-29T20:23:49.628Z,100.00
2022-08-29T20:26:20.818Z,100.00
2022-08-29T20:28:50.899Z,100.00
2022-08-29T20:31:20.020Z,100.00
2022-08-29T20:33:49.398Z,100.00
2022-08-29T20:36:39.052Z,100.00
2022-08-29T20:39:09.379Z,100.00
2022-08-29T20:41:38.207Z,100.00
2022-08-29T20:44:10.020Z,100.00
2022-08-29T20:46:41.162Z,100.00
2022-08-29T20:49:10.138Z,100.00
2022-08-29T20:51:44.152Z,100.00
2022-08-29T20:54:14.208Z,100.00
2022-08-29T20:56:43.527Z,100.00
2022-08-29T20:59:12.381Z,100.00
2022-08-29T21:01:41.856Z,100.00
2022-08-29T21:04:28.457Z,100.00
2022-08-29T21:07:00.277Z,100.00
2022-08-29T21:09:29.773Z,100.00
2022-08-29T21:11:58.268Z,100.00
2022-08-29T21:14:27.510Z,100.00
2022-08-29T21:16:58.542Z,100.00
2022-08-29T21:19:30.213Z,100.00
2022-08-29T21:22:00.977Z,100.00
2022-08-29T21:24:30.916Z,100.00
2022-08-29T21:26:59.698Z,100.00
2022-08-29T21:29:28.793Z,100.00
2022-08-29T21:31:57.610Z,100.00
2022-08-29T21:34:26.863Z,100.00
2022-08-29T21:36:55.697Z,100.00
2022-08-29T21:39:28.733Z,100.00
2022-08-29T21:42:02.598Z,100.00
2022-08-29T21:44:32.553Z,100.00
2022-08-29T21:47:01.438Z,100.00
2022-08-29T21:49:31.528Z,100.00
2022-08-29T21:52:01.005Z,100.00
2022-08-29T21:54:38.947Z,100.00
2022-08-29T21:57:07.170Z,100.00
2022-08-29T21:59:35.735Z,100.00
2022-08-29T22:02:04.360Z,100.00
2022-08-29T22:04:34.502Z,100.00
2022-08-29T22:07:03.045Z,100.00
2022-08-29T22:09:33.386Z,100.00
2022-08-29T22:12:03.947Z,100.00
2022-08-29T22:14:49.971Z,100.00
2022-08-29T22:17:18.784Z,100.00
2022-08-29T22:19:47.578Z,100.00
2022-08-29T22:22:16.083Z,100.00
2022-08-29T22:24:46.529Z,100.00
2022-08-29T22:27:15.184Z,100.00
2022-08-29T22:29:43.918Z,100.00
2022-08-29T22:32:23.080Z,100.00
2022-08-29T22:34:51.680Z,100.00
2022-08-29T22:37:20.559Z,100.00
2022-08-29T22:39:50.543Z,100.00
2022-08-29T22:42:19.358Z,100.00
2022-08-29T22:45:03.191Z,100.00
2022-08-29T22:47:32.554Z,100.00
2022-08-29T22:50:01.136Z,100.00
2022-08-29T22:52:30.102Z,100.00
2022-08-29T22:55:00.221Z,100.00
2022-08-29T22:57:28.916Z,100.00
2022-08-29T22:59:57.408Z,100.00
2022-08-29T23:02:26.018Z,100.00
2022-08-29T23:04:54.622Z,100.00
2022-08-29T23:07:23.127Z,100.00
2022-08-29T23:09:51.902Z,100.00
2022-08-29T23:12:21.791Z,100.00
2022-08-29T23:14:50.447Z,100.00
2022-08-29T23:17:20.226Z,100.00
2022-08-29T23:19:49.886Z,100.00
2022-08-29T23:22:18.938Z,100.00
2022-08-29T23:24:57.802Z,100.00
2022-08-29T23:27:28.957Z,100.00
2022-08-29T23:29:58.701Z,100.00
2022-08-29T23:32:28.082Z,100.00
2022-08-29T23:34:57.177Z,100.00
2022-08-29T23:37:25.914Z,100.00
2022-08-29T23:39:54.802Z,100.00
2022-08-29T23:42:23.339Z,100.00
2022-08-29T23:44:53.502Z,100.00
2022-08-29T23:47:22.070Z,100.00
2022-08-29T23:49:50.579Z,100.00
2022-08-29T23:52:19.314Z,100.00
2022-08-29T23:54:48.225Z,100.00
2022-08-29T23:57:17.333Z,100.00
